createdAt,value
2022-08-05T00:00:53.817Z,26.10
2022-08-05T00:03:20.885Z,26.00
2022-08-05T00:06:04.636Z,25.90
2022-08-05T00:08:36.459Z,25.90
2022-08-05T00:11:07.525Z,26.10
2022-08-05T00:13:52.993Z,25.80
2022-08-05T00:16:35.590Z,26.00
2022-08-05T00:19:04.391Z,25.80
2022-08-05T00:21:31.297Z,25.70
2022-08-05T00:24:10.248Z,25.70
2022-08-05T00:26:38.493Z,25.70
2022-08-05T00:29:05.495Z,25.70
2022-08-05T00:31:41.357Z,25.70
2022-08-05T00:34:56.731Z,25.70
2022-08-05T00:37:11.208Z,25.60
2022-08-05T00:39:44.392Z,25.50
2022-08-05T00:42:39.749Z,25.50
2022-08-05T00:45:11.538Z,25.50
2022-08-05T00:47:53.388Z,25.40
2022-08-05T00:50:25.112Z,25.30
2022-08-05T00:52:53.388Z,25.30
2022-08-05T00:55:22.359Z,25.30
2022-08-05T00:57:58.520Z,25.40
2022-08-05T01:00:27.989Z,25.40
2022-08-05T01:02:56.130Z,25.20
2022-08-05T01:05:23.567Z,25.20
2022-08-05T01:08:40.112Z,25.30
2022-08-05T01:11:01.021Z,25.10
2022-08-05T01:13:58.356Z,24.80
2022-08-05T01:16:34.129Z,24.60
2022-08-05T01:19:19.836Z,24.50
2022-08-05T01:22:03.887Z,24.30
2022-08-05T01:24:49.985Z,24.20
2022-08-05T01:27:50.760Z,24.10
2022-08-05T01:30:34.571Z,24.00
2022-08-05T01:33:06.254Z,23.80
2022-08-05T01:35:50.606Z,23.90
2022-08-05T01:38:27.382Z,23.80
2022-08-05T01:40:59.608Z,24.00
2022-08-05T01:43:27.883Z,24.00
2022-08-05T01:45:57.076Z,23.90
2022-08-05T01:48:27.635Z,23.90
2022-08-05T01:50:56.795Z,23.80
2022-08-05T01:53:57.419Z,23.80
2022-08-05T01:58:11.968Z,23.70
2022-08-05T01:59:06.592Z,23.70
2022-08-05T02:01:39.816Z,23.60
2022-08-05T02:04:09.120Z,23.50
2022-08-05T02:06:39.098Z,23.40
2022-08-05T02:09:07.324Z,23.00
2022-08-05T02:12:05.003Z,23.00
2022-08-05T02:14:43.325Z,22.80
2022-08-05T02:18:28.825Z,22.70
2022-08-05T02:20:20.770Z,22.60
2022-08-05T02:22:59.715Z,22.50
2022-08-05T02:25:49.529Z,22.60
2022-08-05T02:28:28.903Z,22.60
2022-08-05T02:31:07.512Z,22.40
2022-08-05T02:33:42.161Z,22.30
2022-08-05T02:36:13.737Z,22.30
2022-08-05T02:38:52.939Z,22.20
2022-08-05T02:41:23.195Z,22.10
2022-08-05T02:44:02.975Z,22.20
2022-08-05T02:46:44.063Z,22.30
2022-08-05T02:49:27.114Z,22.40
2022-08-05T02:52:05.389Z,22.50
2022-08-05T02:54:36.465Z,22.40
2022-08-05T02:57:09.856Z,22.40
2022-08-05T02:59:55.486Z,22.30
2022-08-05T03:02:29.410Z,22.20
2022-08-05T03:04:58.558Z,22.20
2022-08-05T03:08:00.065Z,22.00
2022-08-05T03:10:24.400Z,21.80
2022-08-05T03:12:54.046Z,21.60
2022-08-05T03:15:23.377Z,21.70
2022-08-05T03:17:55.917Z,21.60
2022-08-05T03:20:24.829Z,21.50
2022-08-05T03:22:53.099Z,21.40
2022-08-05T03:25:32.764Z,21.50
2022-08-05T03:28:03.085Z,21.30
2022-08-05T03:30:34.660Z,21.40
2022-08-05T03:33:06.245Z,21.30
2022-08-05T03:35:40.466Z,21.30
2022-08-05T03:38:08.776Z,21.30
2022-08-05T03:40:39.531Z,21.20
2022-08-05T03:43:58.240Z,21.30
2022-08-05T03:45:58.596Z,21.20
2022-08-05T03:48:30.851Z,21.10
2022-08-05T03:52:38.671Z,21.00
2022-08-05T03:55:51.847Z,21.00
2022-08-05T03:57:16.255Z,20.90
2022-08-05T03:59:55.046Z,20.90
2022-08-05T04:02:37.414Z,20.90
2022-08-05T04:05:09.702Z,20.90
2022-08-05T04:07:57.301Z,20.80
2022-08-05T04:10:27.713Z,20.90
2022-08-05T04:12:58.982Z,20.80
2022-08-05T04:15:27.734Z,20.70
2022-08-05T04:18:03.251Z,20.80
2022-08-05T04:20:30.059Z,20.80
2022-08-05T04:22:58.643Z,20.90
2022-08-05T04:25:57.573Z,20.90
2022-08-05T04:28:12.991Z,20.90
2022-08-05T04:30:40.111Z,21.00
2022-08-05T04:33:09.748Z,21.10
2022-08-05T04:36:16.609Z,21.10
2022-08-05T04:38:39.840Z,21.10
2022-08-05T04:41:09.582Z,21.20
2022-08-05T04:43:40.635Z,21.10
2022-08-05T04:46:15.038Z,21.10
2022-08-05T04:48:58.014Z,21.10
2022-08-05T04:51:25.671Z,21.20
2022-08-05T04:53:57.179Z,20.90
2022-08-05T04:56:34.436Z,21.00
2022-08-05T04:59:21.884Z,20.90
2022-08-05T05:02:07.254Z,21.00
2022-08-05T05:04:43.839Z,20.90
2022-08-05T05:07:29.295Z,21.10
2022-08-05T05:09:56.906Z,21.20
2022-08-05T05:12:24.331Z,21.30
2022-08-05T05:14:54.388Z,21.40
2022-08-05T05:17:24.156Z,21.60
2022-08-05T05:19:56.385Z,21.70
2022-08-05T05:22:26.407Z,21.80
2022-08-05T05:25:00.303Z,21.70
2022-08-05T05:27:44.867Z,21.60
2022-08-05T05:30:29.123Z,21.50
2022-08-05T05:33:00.446Z,21.50
2022-08-05T05:35:29.111Z,21.40
2022-08-05T05:38:03.067Z,21.30
2022-08-05T05:40:46.638Z,21.20
2022-08-05T05:43:22.107Z,21.10
2022-08-05T05:46:05.208Z,21.10
2022-08-05T05:48:34.574Z,21.00
2022-08-05T05:51:15.053Z,21.00
2022-08-05T05:53:45.952Z,21.20
2022-08-05T05:56:31.338Z,20.90
2022-08-05T05:59:05.419Z,20.90
2022-08-05T06:01:39.499Z,20.90
2022-08-05T06:04:12.655Z,20.90
2022-08-05T06:09:52.651Z,20.90
2022-08-05T06:12:12.261Z,20.80
2022-08-05T06:14:45.237Z,20.90
2022-08-05T06:17:22.237Z,21.00
2022-08-05T06:19:56.631Z,21.10
2022-08-05T06:22:33.634Z,20.90
2022-08-05T06:25:58.964Z,20.90
2022-08-05T06:28:10.685Z,20.90
2022-08-05T06:30:35.441Z,20.80
2022-08-05T06:33:02.351Z,20.90
2022-08-05T06:36:03.643Z,20.80
2022-08-05T06:38:16.328Z,20.70
2022-08-05T06:40:44.618Z,20.70
2022-08-05T06:43:59.188Z,20.80
2022-08-05T06:46:04.164Z,20.80
2022-08-05T06:48:55.716Z,20.90
2022-08-05T06:51:29.572Z,20.90
2022-08-05T06:54:02.720Z,20.90
2022-08-05T06:56:34.233Z,20.80
2022-08-05T06:59:03.477Z,20.60
2022-08-05T07:01:35.764Z,20.40
2022-08-05T07:04:03.768Z,20.60
2022-08-05T07:06:31.902Z,20.40
2022-08-05T07:08:59.602Z,20.20
2022-08-05T07:11:31.199Z,20.00
2022-08-05T07:14:28.863Z,20.20
2022-08-05T07:17:59.044Z,19.90
2022-08-05T07:22:36.183Z,20.10
2022-08-05T07:25:23.216Z,20.00
2022-08-05T07:27:56.595Z,20.00
2022-08-05T07:30:31.729Z,20.10
2022-08-05T07:33:00.816Z,20.20
2022-08-05T07:36:03.086Z,20.20
2022-08-05T07:38:32.273Z,20.10
2022-08-05T07:42:09.594Z,20.10
2022-08-05T07:44:04.113Z,20.20
2022-08-05T07:46:31.770Z,20.20
2022-08-05T07:49:05.941Z,20.20
2022-08-05T07:51:40.601Z,20.40
2022-08-05T07:54:10.488Z,20.40
2022-08-05T07:57:01.842Z,20.50
2022-08-05T07:59:39.003Z,20.80
2022-08-05T08:51:22.204Z,22.80
2022-08-05T08:53:40.231Z,23.20
2022-08-05T08:56:11.270Z,23.00
2022-08-05T08:58:47.760Z,23.10
2022-08-05T09:01:18.209Z,23.60
2022-08-05T09:03:55.053Z,24.00
2022-08-05T09:06:24.315Z,24.00
2022-08-05T09:08:55.996Z,24.20
2022-08-05T09:11:52.808Z,24.00
2022-08-05T09:14:58.932Z,23.90
2022-08-05T09:17:00.221Z,24.00
2022-08-05T09:19:36.613Z,23.80
2022-08-05T09:22:22.777Z,23.80
2022-08-05T09:25:13.800Z,23.90
2022-08-05T09:28:05.998Z,23.80
2022-08-05T09:30:34.440Z,23.40
2022-08-05T09:33:04.973Z,23.30
2022-08-05T09:35:31.876Z,23.10
2022-08-05T09:38:16.164Z,23.00
2022-08-05T09:40:52.486Z,23.20
2022-08-05T09:43:41.758Z,23.30
2022-08-05T09:46:51.678Z,23.00
2022-08-05T09:49:57.050Z,22.90
2022-08-05T09:52:45.224Z,22.80
2022-08-05T09:55:58.216Z,22.70
2022-08-05T09:58:00.307Z,22.20
2022-08-05T10:00:29.584Z,22.00
2022-08-05T10:02:58.713Z,21.90
2022-08-05T10:05:28.159Z,22.00
2022-08-05T10:08:34.794Z,22.10
2022-08-05T10:10:44.174Z,22.30
2022-08-05T10:13:11.505Z,22.50
2022-08-05T10:15:42.050Z,22.70
2022-08-05T10:18:20.349Z,23.00
2022-08-05T10:20:56.667Z,22.80
2022-08-05T10:23:55.158Z,22.80
2022-08-05T10:26:14.697Z,22.90
2022-08-05T10:29:00.732Z,23.00
2022-08-05T10:32:54.430Z,23.00
2022-08-05T10:34:14.818Z,23.50
2022-08-05T10:36:44.275Z,23.70
2022-08-05T10:39:24.394Z,24.20
2022-08-05T10:42:00.900Z,24.40
2022-08-05T10:44:30.874Z,24.00
2022-08-05T10:46:57.721Z,23.80
2022-08-05T10:49:32.985Z,23.70
2022-08-05T10:52:03.247Z,23.60
2022-08-05T10:55:02.318Z,23.60
2022-08-05T10:57:31.688Z,23.60
2022-08-05T11:00:13.237Z,23.30
2022-08-05T11:03:25.313Z,23.50
2022-08-05T11:06:14.583Z,23.60
2022-08-05T11:09:32.426Z,23.70
2022-08-05T11:12:26.636Z,23.80
2022-08-05T11:15:20.715Z,23.60
2022-08-05T11:17:57.543Z,23.40
2022-08-05T11:20:48.462Z,23.40
2022-08-05T11:24:03.382Z,23.40
2022-08-05T11:26:28.076Z,23.40
2022-08-05T11:29:06.752Z,23.40
2022-08-05T11:31:56.969Z,23.30
2022-08-05T11:34:47.447Z,23.50
2022-08-05T11:38:30.852Z,23.60
2022-08-05T11:41:03.522Z,23.80
2022-08-05T11:44:08.240Z,24.00
2022-08-05T11:46:35.534Z,23.80
2022-08-05T11:49:05.277Z,23.90
2022-08-05T11:51:44.845Z,24.10
2022-08-05T11:54:32.717Z,24.20
2022-08-05T11:57:08.177Z,24.20
2022-08-05T11:59:50.628Z,24.00
2022-08-05T12:02:23.936Z,23.60
2022-08-05T12:04:59.608Z,23.70
2022-08-05T12:08:09.256Z,23.80
2022-08-05T12:10:19.893Z,24.00
2022-08-05T12:12:59.415Z,23.90
2022-08-05T12:15:37.798Z,23.70
2022-08-05T12:18:10.460Z,23.80
2022-08-05T12:20:38.774Z,24.00
2022-08-05T12:23:12.323Z,23.70
2022-08-05T12:25:56.923Z,23.70
2022-08-05T12:28:50.404Z,23.60
2022-08-05T12:31:23.352Z,23.60
2022-08-05T12:34:02.322Z,24.00
2022-08-05T12:36:30.946Z,24.20
2022-08-05T12:38:59.332Z,24.30
2022-08-05T12:41:34.383Z,24.60
2022-08-05T12:44:06.232Z,24.80
2022-08-05T12:46:40.844Z,24.70
2022-08-05T12:49:14.628Z,24.90
2022-08-05T12:52:12.321Z,24.90
2022-08-05T12:54:42.556Z,25.00
2022-08-05T12:57:13.282Z,25.00
2022-08-05T13:01:56.868Z,25.20
2022-08-05T13:02:50.845Z,25.30
2022-08-05T13:05:23.626Z,25.30
2022-08-05T13:08:00.561Z,25.30
2022-08-05T13:10:28.750Z,25.30
2022-08-05T13:12:58.133Z,25.30
2022-08-05T13:15:42.221Z,25.30
2022-08-05T13:18:20.844Z,25.10
2022-08-05T13:20:50.022Z,25.30
2022-08-05T13:23:18.297Z,25.40
2022-08-05T13:25:52.230Z,25.40
2022-08-05T13:28:27.174Z,25.40
2022-08-05T13:30:54.082Z,25.40
2022-08-05T13:34:21.828Z,25.40
2022-08-05T13:36:11.233Z,25.50
2022-08-05T13:38:42.218Z,25.50
2022-08-05T13:41:11.602Z,25.50
2022-08-05T13:43:43.963Z,25.60
2022-08-05T13:46:30.690Z,25.60
2022-08-05T13:49:10.412Z,25.20
2022-08-05T13:51:45.813Z,25.40
2022-08-05T13:54:17.181Z,25.50
2022-08-05T13:56:51.499Z,25.50
2022-08-05T13:59:24.245Z,25.50
2022-08-05T14:01:59.068Z,25.50
2022-08-05T14:04:51.592Z,25.50
2022-08-05T14:07:55.689Z,25.60
2022-08-05T14:10:19.218Z,25.60
2022-08-05T14:12:55.378Z,25.60
2022-08-05T14:16:08.476Z,25.30
2022-08-05T14:18:14.969Z,25.40
2022-08-05T14:20:46.847Z,25.50
2022-08-05T14:23:18.984Z,25.60
2022-08-05T14:25:53.798Z,25.10
2022-08-05T14:28:26.332Z,25.50
2022-08-05T14:30:54.694Z,25.90
2022-08-05T14:33:22.817Z,26.20
2022-08-05T14:35:51.852Z,25.90
2022-08-05T14:38:33.333Z,25.50
2022-08-05T14:41:06.915Z,25.50
2022-08-05T14:44:01.615Z,25.40
2022-08-05T14:46:28.170Z,25.10
2022-08-05T14:49:06.195Z,25.30
2022-08-05T14:51:34.526Z,25.20
2022-08-05T14:54:28.458Z,25.20
2022-08-05T14:56:48.188Z,25.20
2022-08-05T14:59:15.703Z,25.20
2022-08-05T15:01:49.082Z,25.40
2022-08-05T15:04:22.778Z,25.40
2022-08-05T15:06:53.010Z,25.70
2022-08-05T15:09:51.597Z,25.60
2022-08-05T15:12:11.473Z,25.50
2022-08-05T15:14:49.398Z,25.50
2022-08-05T15:17:45.834Z,25.40
2022-08-05T15:20:17.055Z,25.20
2022-08-05T15:22:54.354Z,24.90
2022-08-05T15:25:40.943Z,25.10
2022-08-05T15:28:13.411Z,25.20
2022-08-05T15:30:43.353Z,25.70
2022-08-05T15:33:10.558Z,26.00
2022-08-05T15:35:45.229Z,25.50
2022-08-05T15:38:36.082Z,25.60
2022-08-05T15:41:21.347Z,25.70
2022-08-05T15:43:47.087Z,25.20
2022-08-05T15:46:14.209Z,25.20
2022-08-05T15:48:52.675Z,25.20
2022-08-05T15:52:03.838Z,25.30
2022-08-05T15:56:43.611Z,23.60
2022-08-05T15:59:22.275Z,23.10
2022-08-05T16:01:52.450Z,22.70
2022-08-05T16:04:20.167Z,22.60
2022-08-05T16:06:51.942Z,22.30
2022-08-05T16:09:19.067Z,22.20
2022-08-05T16:11:52.757Z,22.30
2022-08-05T16:14:20.185Z,22.10
2022-08-05T16:16:47.485Z,22.00
2022-08-05T16:19:14.589Z,22.10
2022-08-05T16:21:59.347Z,22.20
2022-08-05T16:24:40.407Z,22.20
2022-08-05T16:27:09.290Z,22.40
2022-08-05T16:29:37.350Z,22.30
2022-08-05T16:32:06.644Z,22.30
2022-08-05T16:34:39.291Z,22.40
2022-08-05T16:38:15.414Z,22.40
2022-08-05T16:40:05.116Z,22.30
2022-08-05T16:42:35.482Z,22.30
2022-08-05T16:45:06.230Z,22.30
2022-08-05T16:47:55.532Z,22.30
2022-08-05T16:50:25.503Z,22.40
2022-08-05T16:52:52.192Z,22.40
2022-08-05T16:55:20.270Z,22.50
2022-08-05T16:57:59.810Z,22.70
2022-08-05T17:00:34.286Z,22.80
2022-08-05T17:03:03.799Z,22.60
2022-08-05T17:05:37.014Z,22.60
2022-08-05T17:08:07.621Z,22.60
2022-08-05T17:10:34.719Z,22.50
2022-08-05T17:13:04.346Z,22.70
2022-08-05T17:15:48.969Z,22.70
2022-08-05T17:18:17.754Z,22.90
2022-08-05T17:20:46.118Z,22.80
2022-08-05T17:24:03.134Z,22.60
2022-08-05T17:25:59.575Z,22.40
2022-08-05T17:28:29.083Z,22.30
2022-08-05T17:30:56.558Z,22.30
2022-08-05T17:33:25.564Z,22.30
2022-08-05T17:36:07.609Z,22.30
2022-08-05T17:38:36.451Z,22.30
2022-08-05T17:41:03.205Z,22.30
2022-08-05T17:43:50.620Z,22.30
2022-08-05T17:46:18.405Z,22.10
2022-08-05T17:48:45.196Z,22.00
2022-08-05T17:51:21.893Z,22.20
2022-08-05T17:53:54.425Z,22.10
2022-08-05T17:56:22.652Z,22.10
2022-08-05T17:58:49.867Z,22.10
2022-08-05T18:01:18.757Z,22.10
2022-08-05T18:04:04.061Z,22.00
2022-08-05T18:06:32.884Z,21.80
2022-08-05T18:08:59.703Z,21.80
2022-08-05T18:11:33.245Z,21.70
2022-08-05T18:14:07.173Z,21.80
2022-08-05T18:16:51.523Z,21.80
2022-08-05T18:19:22.837Z,21.70
2022-08-05T18:22:08.447Z,21.70
2022-08-05T18:24:39.479Z,21.60
2022-08-05T18:27:18.229Z,21.60
2022-08-05T18:29:51.916Z,21.50
2022-08-05T18:32:20.666Z,21.50
2022-08-05T18:34:54.763Z,21.60
2022-08-05T18:37:34.742Z,21.40
2022-08-05T18:40:31.607Z,21.30
2022-08-05T18:42:56.663Z,21.30
2022-08-05T18:45:23.859Z,21.30
2022-08-05T18:47:56.339Z,21.30
2022-08-05T18:50:46.279Z,21.20
2022-08-05T18:53:22.207Z,21.10
2022-08-05T18:55:51.856Z,21.10
2022-08-05T18:58:18.734Z,21.20
2022-08-05T19:00:54.268Z,21.10
2022-08-05T19:03:53.277Z,21.00
2022-08-05T19:06:18.795Z,20.90
2022-08-05T19:08:47.115Z,20.90
2022-08-05T19:11:15.278Z,20.80
2022-08-05T19:13:48.779Z,20.90
2022-08-05T19:16:33.102Z,20.80
2022-08-05T19:19:14.138Z,20.70
2022-08-05T19:21:41.305Z,20.70
2022-08-05T19:24:12.523Z,20.60
2022-08-05T19:26:54.812Z,20.60
2022-08-05T19:29:35.441Z,20.60
2022-08-05T19:32:04.420Z,20.50
2022-08-05T19:34:31.392Z,20.50
2022-08-05T19:36:58.078Z,20.50
2022-08-05T19:39:24.859Z,20.50
2022-08-05T19:42:08.058Z,20.40
2022-08-05T19:44:45.206Z,20.40
2022-08-05T19:47:17.614Z,20.40
2022-08-05T19:49:57.408Z,20.40
2022-08-05T19:52:42.072Z,20.50
2022-08-05T19:56:12.420Z,20.30
2022-08-05T19:58:29.204Z,20.20
2022-08-05T20:01:01.149Z,20.20
2022-08-05T20:03:59.312Z,20.10
2022-08-05T20:06:53.738Z,20.00
2022-08-05T20:09:55.020Z,20.00
2022-08-05T20:12:24.760Z,20.00
2022-08-05T20:15:48.876Z,20.00
2022-08-05T20:18:10.861Z,20.00
2022-08-05T20:20:55.760Z,19.90
2022-08-05T20:23:39.749Z,19.80
2022-08-05T20:26:27.115Z,19.80
2022-08-05T20:29:03.681Z,19.80
2022-08-05T20:31:42.981Z,19.80
2022-08-05T20:34:21.490Z,19.60
2022-08-05T20:36:50.123Z,19.60
2022-08-05T20:39:17.149Z,19.50
2022-08-05T20:41:45.227Z,19.30
2022-08-05T20:44:18.386Z,19.40
2022-08-05T20:46:47.333Z,19.60
2022-08-05T20:49:18.432Z,19.30
2022-08-05T20:51:58.018Z,19.30
2022-08-05T20:54:55.241Z,19.20
2022-08-05T20:57:42.694Z,19.20
2022-08-05T21:00:20.285Z,19.10
2022-08-05T21:03:00.131Z,19.00
2022-08-05T21:05:38.068Z,19.00
2022-08-05T21:08:15.387Z,18.90
2022-08-05T21:10:49.462Z,18.90
2022-08-05T21:13:26.117Z,18.90
2022-08-05T21:16:16.199Z,18.90
2022-08-05T21:18:45.074Z,18.80
2022-08-05T21:21:13.486Z,18.80
2022-08-05T21:23:40.561Z,18.60
2022-08-05T21:26:14.273Z,18.80
2022-08-05T21:28:51.018Z,18.70
2022-08-05T21:31:21.728Z,18.70
2022-08-05T21:33:49.749Z,18.60
2022-08-05T21:36:27.559Z,18.60
2022-08-05T21:38:58.451Z,18.70
2022-08-05T21:41:32.840Z,18.60
2022-08-05T21:44:01.792Z,18.60
2022-08-05T21:46:31.098Z,18.50
2022-08-05T21:48:59.846Z,18.50
2022-08-05T21:52:21.871Z,18.40
2022-08-05T21:54:13.622Z,18.30
2022-08-05T21:56:44.744Z,18.30
2022-08-05T21:59:22.593Z,18.30
2022-08-05T22:01:54.440Z,18.30
2022-08-05T22:04:25.228Z,18.20
2022-08-05T22:06:52.763Z,18.20
2022-08-05T22:09:21.133Z,18.30
2022-08-05T22:11:48.737Z,18.00
2022-08-05T22:14:35.117Z,18.00
2022-08-05T22:17:06.638Z,18.00
2022-08-05T22:20:03.033Z,18.00
2022-08-05T22:22:27.129Z,17.90
2022-08-05T22:25:27.704Z,17.90
2022-08-05T22:28:12.102Z,17.90
2022-08-05T22:30:44.162Z,18.00
2022-08-05T22:33:58.308Z,17.80
2022-08-05T22:36:11.074Z,17.70
2022-08-05T22:38:48.583Z,17.80
2022-08-05T22:42:04.551Z,17.60
2022-08-05T22:44:03.850Z,17.60
2022-08-05T22:46:31.448Z,17.60
2022-08-05T22:48:59.420Z,17.50
2022-08-05T22:52:04.644Z,17.50
2022-08-05T22:54:13.034Z,17.30
2022-08-05T22:56:40.788Z,17.40
2022-08-05T22:59:46.405Z,17.40
2022-08-05T23:02:05.454Z,17.40
2022-08-05T23:04:34.456Z,17.30
2022-08-05T23:07:01.805Z,17.40
2022-08-05T23:09:53.464Z,17.30
2022-08-05T23:12:17.813Z,17.20
2022-08-05T23:14:44.825Z,17.40
2022-08-05T23:17:24.163Z,17.20
2022-08-05T23:19:56.496Z,17.10
2022-08-05T23:22:27.508Z,17.10
2022-08-05T23:24:55.141Z,17.10
2022-08-05T23:27:22.674Z,17.00
2022-08-05T23:29:50.806Z,17.00
2022-08-05T23:32:22.872Z,17.00
2022-08-05T23:34:49.960Z,17.00
2022-08-05T23:37:17.896Z,17.00
2022-08-05T23:39:53.956Z,17.00
2022-08-05T23:42:29.612Z,16.90
2022-08-05T23:44:57.192Z,16.90
2022-08-05T23:47:25.247Z,16.90
2022-08-05T23:49:55.606Z,16.90
2022-08-05T23:52:26.687Z,16.80
2022-08-05T23:55:00.638Z,17.00
2022-08-05T23:57:28.508Z,17.00
